Time,TemperatureF,DewpointF,PressureIn,WindDirection,WindDirectionDegrees,WindSpeedMPH,WindSpeedGustMPH,Humidity,HourlyPrecipIn,Conditions,Clouds,dailyrainin,SoftwareType,DateUTC
2013-10-28 00:14:00,40.0,31.0,29.99,SW,222,0.0,0.0,71,0.00,,,0.02,,2013-10-28 04:14:00,
2013-10-28 00:23:00,40.0,32.0,29.99,SW,224,0.0,0.0,73,0.00,,,0.02,,2013-10-28 04:23:00,
2013-10-28 00:53:00,38.0,31.0,29.99,SW,224,0.0,0.0,77,0.00,,,0.02,,2013-10-28 04:53:00,
2013-10-28 01:13:00,37.0,31.0,30.01,SW,224,0.0,0.0,79,0.00,,,0.02,,2013-10-28 05:13:00,
2013-10-28 01:22:00,37.0,31.0,30.01,SW,224,0.0,0.0,80,0.00,,,0.02,,2013-10-28 05:22:00,
2013-10-28 01:53:00,36.0,30.0,30.01,WSW,243,0.0,0.0,80,0.00,,,0.02,,2013-10-28 05:53:00,
2013-10-28 02:12:00,37.0,30.0,30.02,WSW,241,0.0,0.0,77,0.00,,,0.02,,2013-10-28 06:12:00,
2013-10-28 02:22:00,37.0,31.0,30.02,WSW,241,0.0,0.0,78,0.00,,,0.02,,2013-10-28 06:22:00,
2013-10-28 02:43:00,36.0,31.0,30.01,WSW,241,0.0,0.0,82,0.00,,,0.02,,2013-10-28 06:43:00,
2013-10-28 02:52:00,35.0,30.0,30.01,WSW,241,0.0,0.0,83,0.00,,,0.01,,2013-10-28 06:52:00,
2013-10-28 03:12:00,34.0,29.0,30.01,WSW,241,0.0,0.0,83,0.00,,,0.01,,2013-10-28 07:12:00,
2013-10-28 03:22:00,33.0,29.0,30.01,WSW,241,0.0,0.0,84,0.00,,,0.01,,2013-10-28 07:22:00,
2013-10-28 03:52:00,33.0,29.0,30.01,WSW,241,0.0,0.0,86,0.00,,,0.01,,2013-10-28 07:52:00,
2013-10-28 04:12:00,34.0,31.0,30.01,WSW,241,0.0,0.0,89,0.00,,,0.01,,2013-10-28 08:12:00,
2013-10-28 04:22:00,34.0,31.0,30.01,WSW,241,0.0,0.0,88,0.00,,,0.01,,2013-10-28 08:22:00,
2013-10-28 04:42:00,33.0,30.0,30.02,WSW,241,0.0,0.0,89,0.00,,,0.01,,2013-10-28 08:42:00,
2013-10-28 04:52:00,33.0,30.0,30.02,WSW,241,0.0,0.0,89,0.00,,,0.01,,2013-10-28 08:52:00,
2013-10-28 05:11:00,32.0,29.0,30.03,WSW,241,0.0,0.0,90,0.00,,,0.01,,2013-10-28 09:11:00,
2013-10-28 05:22:00,32.0,29.0,30.03,WSW,241,0.0,0.0,90,0.00,,,0.01,,2013-10-28 09:22:00,
2013-10-28 05:53:00,32.0,30.0,30.04,WSW,241,0.0,0.0,91,0.00,,,0.01,,2013-10-28 09:53:00,
2013-10-28 06:23:00,32.0,30.0,30.03,WSW,241,0.0,0.0,91,0.00,,,0.00,,2013-10-28 10:23:00,
2013-10-28 06:43:00,31.0,29.0,30.03,WSW,241,0.0,0.0,92,0.00,,,0.00,,2013-10-28 10:43:00,
2013-10-28 06:53:00,31.0,29.0,30.03,WSW,241,0.0,0.0,92,0.00,,,0.00,,2013-10-28 10:53:00,
2013-10-28 07:12:00,31.0,29.0,30.04,WSW,241,0.0,0.0,92,0.00,,,0.00,,2013-10-28 11:12:00,
2013-10-28 07:22:00,31.0,29.0,30.04,WSW,241,0.0,0.0,93,0.00,,,0.00,,2013-10-28 11:22:00,
2013-10-28 07:42:00,31.0,29.0,30.04,WSW,241,0.0,0.0,94,0.00,,,0.00,,2013-10-28 11:42:00,
2013-10-28 07:52:00,31.0,29.0,30.04,WSW,241,0.0,0.0,93,0.00,,,0.00,,2013-10-28 11:52:00,
2013-10-28 08:21:00,32.0,30.0,30.05,WSW,241,0.0,0.0,94,0.00,,,0.00,,2013-10-28 12:21:00,
2013-10-28 08:42:00,33.0,31.0,30.06,WSW,241,0.0,0.0,94,0.00,,,0.00,,2013-10-28 12:42:00,
2013-10-28 08:52:00,34.0,33.0,30.06,SW,226,0.0,2.0,96,0.00,,,0.00,,2013-10-28 12:52:00,
2013-10-28 09:11:00,38.0,34.0,30.07,WSW,243,0.0,5.0,86,0.00,,,0.00,,2013-10-28 13:11:00,
2013-10-28 09:22:00,38.0,33.0,30.07,WSW,243,0.0,3.0,83,0.00,,,0.00,,2013-10-28 13:22:00,
2013-10-28 09:42:00,41.0,34.0,30.07,SW,229,2.0,8.0,76,0.00,,,0.00,,2013-10-28 13:42:00,
2013-10-28 09:52:00,42.0,34.0,30.07,SW,233,3.0,8.0,73,0.00,,,0.00,,2013-10-28 13:52:00,
2013-10-28 10:11:00,44.0,34.0,30.06,SW,235,4.0,11.0,68,0.00,,,0.00,,2013-10-28 14:11:00,
2013-10-28 10:22:00,46.0,35.0,30.06,SW,228,2.0,8.0,66,0.00,,,0.00,,2013-10-28 14:22:00,
2013-10-28 10:42:00,48.0,34.0,30.05,WSW,240,3.0,17.0,59,0.00,,,0.00,,2013-10-28 14:42:00,
2013-10-28 10:52:00,49.0,34.0,30.05,West,260,2.0,12.0,56,0.00,,,0.00,,2013-10-28 14:52:00,
2013-10-28 11:11:00,51.0,34.0,30.05,WSW,256,5.0,17.0,53,0.00,,,0.00,,2013-10-28 15:11:00,
2013-10-28 11:22:00,52.0,34.0,30.05,SW,234,5.0,13.0,51,0.00,,,0.00,,2013-10-28 15:22:00,
2013-10-28 11:43:00,53.0,34.0,30.05,WSW,243,3.0,21.0,49,0.00,,,0.00,,2013-10-28 15:43:00,
2013-10-28 11:53:00,53.0,34.0,30.05,WSW,250,2.0,13.0,49,0.00,,,0.00,,2013-10-28 15:53:00,
2013-10-28 12:23:00,55.0,34.0,30.04,West,278,8.0,14.0,45,0.00,,,0.00,,2013-10-28 16:23:00,
2013-10-28 12:43:00,55.0,34.0,30.02,WSW,246,3.0,17.0,45,0.00,,,0.00,,2013-10-28 16:43:00,
2013-10-28 12:53:00,56.0,34.0,30.02,WNW,282,10.0,22.0,44,0.00,,,0.00,,2013-10-28 16:53:00,
2013-10-28 13:12:00,57.0,35.0,30.02,WSW,257,3.0,18.0,43,0.00,,,0.00,,2013-10-28 17:12:00,
2013-10-28 13:23:00,55.0,34.0,30.02,West,266,4.0,17.0,45,0.00,,,0.00,,2013-10-28 17:23:00,
2013-10-28 13:52:00,56.0,35.0,30.02,West,280,9.0,22.0,45,0.00,,,0.00,,2013-10-28 17:52:00,
2013-10-28 14:12:00,55.0,36.0,30.02,WNW,290,3.0,17.0,48,0.00,,,0.00,,2013-10-28 18:12:00,
2013-10-28 14:22:00,55.0,36.0,30.02,West,276,4.0,20.0,48,0.00,,,0.00,,2013-10-28 18:22:00,
2013-10-28 14:52:00,56.0,35.0,30.03,WNW,297,7.0,19.0,45,0.00,,,0.00,,2013-10-28 18:52:00,
2013-10-28 15:22:00,55.0,35.0,30.03,West,268,6.0,30.0,47,0.00,,,0.00,,2013-10-28 19:22:00,
2013-10-28 15:42:00,56.0,34.0,30.04,NW,313,3.0,17.0,44,0.00,,,0.00,,2013-10-28 19:42:00,
2013-10-28 15:52:00,56.0,34.0,30.04,WNW,294,4.0,18.0,44,0.00,,,0.00,,2013-10-28 19:52:00,
2013-10-28 16:12:00,56.0,34.0,30.06,NW,305,2.0,13.0,43,0.00,,,0.00,,2013-10-28 20:12:00,
2013-10-28 16:22:00,56.0,34.0,30.06,North,7,1.0,14.0,43,0.00,,,0.00,,2013-10-28 20:22:00,
2013-10-28 16:52:00,54.0,33.0,30.07,NW,314,7.0,18.0,45,0.00,,,0.00,,2013-10-28 20:52:00,
2013-10-28 17:22:00,53.0,31.0,30.09,NW,320,0.0,12.0,43,0.00,,,0.00,,2013-10-28 21:22:00,
2013-10-28 17:43:00,52.0,33.0,30.12,North,3,6.0,16.0,49,0.00,,,0.00,,2013-10-28 21:43:00,
2013-10-28 17:53:00,50.0,34.0,30.12,NNE,21,8.0,20.0,53,0.00,,,0.00,,2013-10-28 21:53:00,
2013-10-28 18:23:00,48.0,33.0,30.14,North,357,3.0,12.0,55,0.00,,,0.00,,2013-10-28 22:23:00,
2013-10-28 18:53:00,47.0,32.0,30.16,NNE,20,2.0,12.0,56,0.00,,,0.00,,2013-10-28 22:53:00,
2013-10-28 19:22:00,46.0,31.0,30.19,NW,308,0.0,7.0,56,0.00,,,0.00,,2013-10-28 23:22:00,
2013-10-28 19:42:00,46.0,31.0,30.21,NNW,342,0.0,6.0,55,0.00,,,0.00,,2013-10-28 23:42:00,
2013-10-28 19:52:00,46.0,31.0,30.21,NNW,346,0.0,10.0,55,0.00,,,0.00,,2013-10-28 23:52:00,
2013-10-28 20:22:00,45.0,29.0,30.22,North,1,0.0,8.0,54,0.00,,,0.00,,2013-10-29 00:22:00,
2013-10-28 20:42:00,44.0,28.0,30.24,NE,34,0.0,13.0,53,0.00,,,0.00,,2013-10-29 00:42:00,
2013-10-28 20:52:00,44.0,28.0,30.24,North,356,0.0,12.0,52,0.00,,,0.00,,2013-10-29 00:52:00,
2013-10-28 21:11:00,43.0,27.0,30.25,North,360,1.0,8.0,52,0.00,,,0.00,,2013-10-29 01:11:00,
2013-10-28 21:22:00,43.0,26.0,30.25,NNW,340,0.0,11.0,51,0.00,,,0.00,,2013-10-29 01:22:00,
2013-10-28 21:42:00,42.0,25.0,30.26,North,11,0.0,0.0,51,0.00,,,0.00,,2013-10-29 01:42:00,
2013-10-28 21:52:00,42.0,26.0,30.26,NNW,344,0.0,0.0,52,0.00,,,0.00,,2013-10-29 01:52:00,
2013-10-28 22:11:00,40.0,27.0,30.27,North,10,0.0,0.0,59,0.00,,,0.00,,2013-10-29 02:11:00,
2013-10-28 22:21:00,40.0,27.0,30.27,North,360,0.0,0.0,59,0.00,,,0.00,,2013-10-29 02:21:00,
2013-10-28 22:44:00,38.0,25.0,30.28,North,359,0.0,0.0,59,0.00,,,0.00,,2013-10-29 02:44:00,
2013-10-28 22:53:00,38.0,24.0,30.28,North,360,0.0,0.0,57,0.00,,,0.00,,2013-10-29 02:53:00,
2013-10-28 23:14:00,37.0,24.0,30.29,North,360,0.0,0.0,60,0.00,,,0.00,,2013-10-29 03:14:00,
2013-10-28 23:27:00,37.0,24.0,30.29,North,360,0.0,0.0,60,0.00,,,0.00,,2013-10-29 03:27:00,
2013-10-28 23:40:00,-999.0,-99.9,30.29,North,360,0.0,0.0,67,0.00,,,0.00,,2013-10-29 03:40:00,
2013-10-28 23:48:00,35.0,25.0,30.29,North,360,0.0,0.0,67,0.00,,,0.00,,2013-10-29 03:48:00,
2013-10-28 23:55:00,35.0,26.0,30.29,North,360,0.0,0.0,68,0.00,,,0.00,,2013-10-29 03:55:00,